»·PEaware :: N122AJ KSAT-KDFW

N122AJ :: KSAT-KDFW

FLIGHT INFORMATION

Flight Status: Arrived
Operator: Privately registered:
United States
More flights under this callsign
Pilot: Andrew Jones (13363)
Aircraft: PILATUS PC-12 EAGLE
(PC12)
More flights by this aircraft type
Origin: KSAT San Antonio Intl
United States
Destination: KDFW Dallas-Ft Worth Intl
United States
More flights between these airports :: More routes between these airports
Route: ALAMO2 GOBBY GUTZZ SOCKK3
File this flight plan on PilotEdge
Remarks: twitch.tv / ajonesieee
Altitude:
(Current/Filed)
23,000ft
Speed:
(Current/Filed)
480kts
Departed: 28-Apr-17 09:53 PM
Arrived: 28-Apr-17 10:52 PM
Distance/Time
Traveled:
215nm/0:59
Distance/Time
To Go:
Arrived

Flight Plot

Page will automatically refresh every two minutes.

Flight plan parsing failed; only flown route is shown


Map Options




Map Legend


Flown Route
Filed Route
Departure Airport
Arrival Airport
Navaid (VOR, NDB)
Fix

Horizontal Profiles

Position Reports

Time Latitude Longitude Heading Altitude Ground
Speed
28-Apr-17 21:45 29.521957 -98.467066 238 812ft 0kts
28-Apr-17 21:46 29.521957 -98.467066 238 812ft 0kts
28-Apr-17 21:47 29.521957 -98.467066 238 812ft 0kts
28-Apr-17 21:48 29.521957 -98.467066 238 812ft 0kts
28-Apr-17 21:49 29.521957 -98.467066 238 812ft 0kts
28-Apr-17 21:50 29.522761 -98.468730 311 812ft 19kts
28-Apr-17 21:51 29.527715 -98.468178 314 812ft 25kts
28-Apr-17 21:52 29.533333 -98.473411 138 812ft 0kts
28-Apr-17 21:53 29.533263 -98.473412 210 812ft 4kts
28-Apr-17 21:54 29.534412 -98.474807 130 812ft 0kts
28-Apr-17 21:55 29.530882 -98.471530 138 1096ft 56kts
28-Apr-17 21:56 29.553470 -98.463311 15 2655ft 124kts
28-Apr-17 21:57 29.588934 -98.456574 18 4652ft 140kts
28-Apr-17 21:58 29.620142 -98.435713 37 6623ft 144kts
28-Apr-17 21:59 29.665300 -98.419754 13 8141ft 189kts
28-Apr-17 22:00 29.717538 -98.410198 6 10044ft 194kts
28-Apr-17 22:01 29.771134 -98.401842 7 11901ft 198kts
28-Apr-17 22:02 29.825268 -98.393080 6 13686ft 201kts
28-Apr-17 22:03 29.880994 -98.384100 5 15501ft 204kts
28-Apr-17 22:04 29.937506 -98.375075 4 17186ft 207kts
28-Apr-17 22:05 29.994841 -98.365913 3 18717ft 211kts
28-Apr-17 22:06 30.053106 -98.356606 3 20080ft 215kts
28-Apr-17 22:07 30.112330 -98.347137 3 21318ft 219kts
28-Apr-17 22:08 30.169420 -98.338007 3 22367ft 222kts
28-Apr-17 22:09 30.231873 -98.328089 3 22993ft 244kts
28-Apr-17 22:10 30.303628 -98.316590 4 22989ft 273kts
28-Apr-17 22:11 30.382010 -98.304015 4 22988ft 294kts
28-Apr-17 22:12 30.463115 -98.291008 4 23014ft 299kts
28-Apr-17 22:13 30.545565 -98.277828 4 23015ft 301kts
28-Apr-17 22:14 30.628619 -98.264535 4 23016ft 303kts
28-Apr-17 22:15 30.712054 -98.251191 4 23016ft 303kts
28-Apr-17 22:16 30.796782 -98.237655 4 22726ft 311kts
28-Apr-17 22:17 30.881198 -98.224130 4 22698ft 307kts
28-Apr-17 22:18 30.965291 -98.210682 4 22698ft 305kts
28-Apr-17 22:19 31.048904 -98.197309 4 22699ft 305kts
28-Apr-17 22:20 31.125474 -98.185061 4 22694ft 305kts
28-Apr-17 22:21 31.206164 -98.172149 4 22695ft 305kts
28-Apr-17 22:22 31.289642 -98.158793 4 22721ft 304kts
28-Apr-17 22:23 31.373466 -98.145382 4 22722ft 305kts
28-Apr-17 22:24 31.455107 -98.132581 4 22697ft 294kts
28-Apr-17 22:25 31.536806 -98.119633 4 22697ft 304kts
28-Apr-17 22:26 31.622033 -98.105995 4 22697ft 312kts
28-Apr-17 22:27 31.707855 -98.092255 4 22697ft 314kts
28-Apr-17 22:28 31.785629 -98.047790 32 22698ft 319kts
28-Apr-17 22:29 31.859830 -97.991888 30 22699ft 320kts
28-Apr-17 22:30 31.933716 -97.936964 31 21088ft 312kts
28-Apr-17 22:31 32.005656 -97.883310 31 19479ft 304kts
28-Apr-17 22:32 32.076010 -97.830756 31 17916ft 297kts
28-Apr-17 22:33 32.142326 -97.781155 31 16417ft 290kts
28-Apr-17 22:34 32.209755 -97.730606 32 14567ft 285kts
28-Apr-17 22:35 32.279052 -97.686065 25 13689ft 282kts
28-Apr-17 22:36 32.349117 -97.644777 25 13232ft 281kts
28-Apr-17 22:37 32.411589 -97.592672 45 13137ft 279kts
28-Apr-17 22:38 32.466661 -97.529310 46 12311ft 276kts
28-Apr-17 22:39 32.483906 -97.446770 89 10776ft 258kts
28-Apr-17 22:40 32.522105 -97.388262 346 9307ft 263kts
28-Apr-17 22:41 32.594639 -97.378518 14 7923ft 265kts
28-Apr-17 22:42 32.664997 -97.358187 16 7407ft 261kts
28-Apr-17 22:43 32.732356 -97.338860 16 7385ft 261kts
28-Apr-17 22:44 32.800943 -97.319194 16 7383ft 260kts
28-Apr-17 22:45 32.870178 -97.299308 16 7381ft 260kts
28-Apr-17 22:46 32.939536 -97.279489 18 6869ft 252kts
28-Apr-17 22:47 32.989078 -97.236900 55 4702ft 219kts
28-Apr-17 22:48 32.988801 -97.172709 103 2503ft 187kts
28-Apr-17 22:49 32.961422 -97.136482 140 1955ft 132kts
28-Apr-17 22:50 32.938005 -97.112306 140 1340ft 95kts
28-Apr-17 22:51 32.921416 -97.095463 140 1058ft 65kts
28-Apr-17 22:52 32.906165 -97.079744 140 627ft 63kts
28-Apr-17 22:53 32.897106 -97.070345 139 609ft 51kts
28-Apr-17 22:54 32.891248 -97.063141 71 609ft 12kts
28-Apr-17 22:55 32.887731 -97.058077 137 609ft 25kts
28-Apr-17 22:56 32.885112 -97.051940 94 609ft 23kts
28-Apr-17 22:57 32.888967 -97.048562 67 609ft 21kts
28-Apr-17 22:58 32.894316 -97.046175 53 609ft 21kts
28-Apr-17 22:59 32.895234 -97.045109 39 609ft 0kts
28-Apr-17 23:00 32.895234 -97.045109 39 609ft 0kts
28-Apr-17 23:01 32.895234 -97.045109 39 609ft 0kts
28-Apr-17 23:02 32.895234 -97.045109 39 609ft 0kts
28-Apr-17 23:03 32.895234 -97.045109 39 609ft 0kts
28-Apr-17 23:04 32.895234 -97.045109 39 609ft 0kts
28-Apr-17 23:05 32.895234 -97.045109 39 609ft 0kts
28-Apr-17 23:06 32.895234 -97.045109 39 609ft 0kts
28-Apr-17 23:07 32.895234 -97.045109 39 609ft 0kts
28-Apr-17 23:08 32.895234 -97.045109 39 609ft 0kts
28-Apr-17 23:09 32.895234 -97.045109 39 609ft 0kts

Navigation Log

Ident Type
Flight plan parsing failed, navigation log unavailable